Time;durP1;ratioP1;P1;durP2;ratioP2;P2;SDS_P1;SDS_P2;PMS_P1;PMS_P2;Temp;Humidity;BMP_temperature;BMP_pressure;BME280_temperature;BME280_humidity;BME280_pressure;Samples;Min_cycle;Max_cycle;Signal;HPM_P1;HPM_P2
2023/12/05 00:01:20;;;;;;;3.22;2.10;;;;;;;;;;5098920;28;20026;-87
2023/12/05 00:03:46;;;;;;;3.25;2.35;;;;;;;;;;5114990;28;20027;-87
2023/12/05 00:09:33;;;;;;;1.67;1.50;;;;;;;;;;5116548;27;20031;-86
2023/12/05 00:11:58;;;;;;;6.32;2.58;;;;;;;;;;5098290;28;20020;-88
2023/12/05 00:14:24;;;;;;;1.73;1.63;;;;;;;;;;5100843;28;20028;-87
2023/12/05 00:16:49;;;;;;;3.33;2.13;;;;;;;;;;5099728;28;20114;-85
2023/12/05 00:19:14;;;;;;;2.33;2.00;;;;;;;;;;5098585;28;20051;-88
2023/12/05 00:21:40;;;;;;;2.35;1.75;;;;;;;;;;5100592;28;20103;-88
2023/12/05 00:24:05;;;;;;;1.70;1.60;;;;;;;;;;5098212;28;20031;-88
2023/12/05 00:26:32;;;;;;;2.70;2.00;;;;;;;;;;5096846;28;20016;-86
2023/12/05 00:28:58;;;;;;;2.42;2.13;;;;;;;;;;5096334;28;20030;-87
2023/12/05 00:31:23;;;;;;;1.65;1.55;;;;;;;;;;5101750;28;20099;-86
2023/12/05 00:33:49;;;;;;;1.30;1.23;;;;;;;;;;5097099;28;20382;-86
2023/12/05 00:36:14;;;;;;;2.40;1.50;;;;;;;;;;5115537;27;20019;-86
2023/12/05 00:38:39;;;;;;;2.10;1.88;;;;;;;;;;5115812;27;20637;-86
2023/12/05 00:41:06;;;;;;;2.03;1.83;;;;;;;;;;5098201;28;20651;-86
2023/12/05 00:43:31;;;;;;;3.58;2.53;;;;;;;;;;5097968;28;20088;-84
2023/12/05 00:45:57;;;;;;;2.70;1.65;;;;;;;;;;5100330;28;20019;-86
2023/12/05 00:48:25;;;;;;;2.75;1.65;;;;;;;;;;5098418;28;20026;-87
2023/12/05 00:50:50;;;;;;;1.13;1.13;;;;;;;;;;5099036;28;20039;-86
2023/12/05 00:53:15;;;;;;;3.15;1.52;;;;;;;;;;5097985;28;20030;-86
2023/12/05 00:55:41;;;;;;;2.30;1.15;;;;;;;;;;5099584;28;20030;-85
2023/12/05 00:58:06;;;;;;;2.35;1.92;;;;;;;;;;5099179;28;20039;-87
2023/12/05 01:00:32;;;;;;;1.00;0.95;;;;;;;;;;5103971;28;20051;-87
2023/12/05 01:02:57;;;;;;;4.88;1.55;;;;;;;;;;5100334;28;20024;-88
2023/12/05 01:05:22;;;;;;;1.98;1.08;;;;;;;;;;5099264;28;20515;-86
2023/12/05 01:07:48;;;;;;;1.58;1.40;;;;;;;;;;5099534;28;20509;-86
2023/12/05 01:10:13;;;;;;;3.03;1.67;;;;;;;;;;5098055;28;20377;-87
2023/12/05 01:12:39;;;;;;;1.13;1.05;;;;;;;;;;5097854;28;20039;-85
2023/12/05 01:15:05;;;;;;;3.25;1.58;;;;;;;;;;5110636;28;20031;-87
2023/12/05 01:17:30;;;;;;;1.17;1.02;;;;;;;;;;5115275;28;20023;-87
2023/12/05 01:19:56;;;;;;;1.15;1.13;;;;;;;;;;5114977;28;20049;-87
2023/12/05 01:22:21;;;;;;;1.98;1.33;;;;;;;;;;5088643;28;20115;-88
2023/12/05 01:24:57;;;;;;;0.80;0.80;;;;;;;;;;5095938;28;20022;-85
2023/12/05 01:27:22;;;;;;;0.73;0.73;;;;;;;;;;5094715;28;20620;-87
2023/12/05 01:29:48;;;;;;;0.98;0.90;;;;;;;;;;5094898;28;20508;-87
2023/12/05 01:32:14;;;;;;;0.90;0.90;;;;;;;;;;5095338;28;20080;-89
2023/12/05 01:34:40;;;;;;;1.00;0.85;;;;;;;;;;5112948;28;20028;-87
2023/12/05 01:37:05;;;;;;;1.20;1.20;;;;;;;;;;5102212;28;22457;-88
2023/12/05 01:39:51;;;;;;;1.48;0.95;;;;;;;;;;5095001;28;20024;-87
2023/12/05 01:42:16;;;;;;;0.63;0.63;;;;;;;;;;5110087;28;20533;-88
2023/12/05 01:44:42;;;;;;;0.68;0.68;;;;;;;;;;5114202;28;20091;-87
2023/12/05 01:47:08;;;;;;;1.25;1.05;;;;;;;;;;5117035;28;20423;-87
2023/12/05 01:49:34;;;;;;;2.63;1.42;;;;;;;;;;5097180;28;20026;-88
2023/12/05 01:52:05;;;;;;;1.27;1.20;;;;;;;;;;5135612;28;20016;-86
2023/12/05 01:54:32;;;;;;;1.95;1.33;;;;;;;;;;5109997;28;20095;-86
2023/12/05 01:56:59;;;;;;;1.25;1.15;;;;;;;;;;5119656;27;20015;-85
2023/12/05 01:59:25;;;;;;;1.92;1.10;;;;;;;;;;5094258;22;20041;-77
2023/12/05 02:01:52;;;;;;;0.75;0.75;;;;;;;;;;5075638;28;20025;-81
2023/12/05 02:04:18;;;;;;;1.52;1.35;;;;;;;;;;5075865;28;20025;-82
2023/12/05 02:06:44;;;;;;;1.10;1.10;;;;;;;;;;5076276;28;20056;-84
2023/12/05 02:09:12;;;;;;;1.23;1.00;;;;;;;;;;5073116;28;20032;-81
2023/12/05 02:11:37;;;;;;;1.00;0.90;;;;;;;;;;5072001;28;20718;-80
2023/12/05 02:14:05;;;;;;;0.90;0.77;;;;;;;;;;5065148;28;20035;-82
2023/12/05 02:16:37;;;;;;;0.77;0.77;;;;;;;;;;5077354;28;20035;-83
2023/12/05 02:19:30;;;;;;;1.20;1.20;;;;;;;;;;5074685;28;20443;-81
2023/12/05 02:21:59;;;;;;;1.65;1.05;;;;;;;;;;5072960;28;20088;-82
2023/12/05 02:24:34;;;;;;;0.90;0.90;;;;;;;;;;5071664;28;20020;-81
2023/12/05 02:27:00;;;;;;;1.20;1.15;;;;;;;;;;5075090;28;20036;-82
2023/12/05 02:29:25;;;;;;;2.83;1.45;;;;;;;;;;5082163;28;20043;-82
2023/12/05 02:31:50;;;;;;;2.17;1.90;;;;;;;;;;5081321;28;20047;-82
2023/12/05 02:34:16;;;;;;;1.20;1.10;;;;;;;;;;5077078;28;20032;-82
2023/12/05 02:36:57;;;;;;;1.65;1.55;;;;;;;;;;5080040;28;20039;-81
2023/12/05 02:39:41;;;;;;;1.38;1.33;;;;;;;;;;5082483;28;20020;-82
2023/12/05 02:42:11;;;;;;;1.35;1.25;;;;;;;;;;5082097;28;20039;-81
2023/12/05 02:44:42;;;;;;;1.20;1.15;;;;;;;;;;5080231;28;20012;-83
2023/12/05 02:47:09;;;;;;;1.37;1.27;;;;;;;;;;5084930;28;20029;-83
2023/12/05 02:49:35;;;;;;;1.63;1.15;;;;;;;;;;5082330;28;20021;-81
2023/12/05 02:52:00;;;;;;;0.77;0.75;;;;;;;;;;5079826;28;20091;-82
2023/12/05 02:54:25;;;;;;;1.13;1.02;;;;;;;;;;5079036;28;20033;-80
2023/12/05 02:56:51;;;;;;;2.75;1.48;;;;;;;;;;5075492;28;20052;-80
2023/12/05 02:59:16;;;;;;;1.35;1.05;;;;;;;;;;5079178;28;20036;-80
2023/12/05 03:01:42;;;;;;;1.48;1.38;;;;;;;;;;5085620;28;20017;-80
2023/12/05 03:04:07;;;;;;;1.40;1.27;;;;;;;;;;5075534;28;20048;-80
2023/12/05 03:06:33;;;;;;;1.00;0.98;;;;;;;;;;5080229;28;20021;-81
2023/12/05 03:09:01;;;;;;;3.03;1.10;;;;;;;;;;5078680;28;20024;-82
2023/12/05 03:11:27;;;;;;;2.35;1.48;;;;;;;;;;5085056;28;20715;-82
2023/12/05 03:13:52;;;;;;;1.88;1.35;;;;;;;;;;5076563;28;20028;-81
2023/12/05 03:16:17;;;;;;;0.82;0.82;;;;;;;;;;5091489;28;20031;-80
2023/12/05 03:18:43;;;;;;;1.15;1.05;;;;;;;;;;5083602;28;20028;-82
2023/12/05 03:21:08;;;;;;;2.55;1.88;;;;;;;;;;5086338;28;20065;-82
2023/12/05 03:23:33;;;;;;;1.35;1.25;;;;;;;;;;5079003;28;20028;-82
2023/12/05 03:25:58;;;;;;;2.92;1.15;;;;;;;;;;5080368;28;20020;-84
2023/12/05 03:28:24;;;;;;;1.55;1.20;;;;;;;;;;5082611;28;20059;-80
2023/12/05 03:30:49;;;;;;;2.47;1.33;;;;;;;;;;5085734;28;20035;-79
2023/12/05 03:33:14;;;;;;;2.25;1.65;;;;;;;;;;5099167;28;20028;-81
2023/12/05 03:35:40;;;;;;;6.70;1.25;;;;;;;;;;5084718;28;20021;-82
2023/12/05 03:38:05;;;;;;;1.20;1.05;;;;;;;;;;5085886;28;20028;-82
2023/12/05 03:40:30;;;;;;;1.13;1.00;;;;;;;;;;5083483;28;20059;-82
2023/12/05 03:42:56;;;;;;;1.35;1.25;;;;;;;;;;5088909;28;20031;-83
2023/12/05 03:45:21;;;;;;;1.58;1.45;;;;;;;;;;5078094;28;20024;-81
2023/12/05 03:47:46;;;;;;;1.65;1.55;;;;;;;;;;5095580;28;20384;-81
2023/12/05 03:50:12;;;;;;;2.03;1.45;;;;;;;;;;5086670;28;20024;-80
2023/12/05 03:52:37;;;;;;;5.07;1.88;;;;;;;;;;5078864;28;20028;-82
2023/12/05 03:55:03;;;;;;;1.48;1.38;;;;;;;;;;5078582;28;20025;-82
2023/12/05 03:57:28;;;;;;;1.15;1.08;;;;;;;;;;5085216;28;20024;-79
2023/12/05 03:59:53;;;;;;;1.05;0.95;;;;;;;;;;5080739;28;20434;-83
2023/12/05 04:02:19;;;;;;;1.88;1.52;;;;;;;;;;5090732;28;20028;-81
2023/12/05 04:04:44;;;;;;;2.83;1.75;;;;;;;;;;5090043;28;20047;-80
2023/12/05 04:07:09;;;;;;;3.10;1.63;;;;;;;;;;5086981;28;20697;-81
2023/12/05 04:09:35;;;;;;;1.45;1.35;;;;;;;;;;5072869;28;20031;-80
2023/12/05 04:12:00;;;;;;;1.40;1.27;;;;;;;;;;5083545;28;20031;-81
2023/12/05 04:14:25;;;;;;;2.85;1.85;;;;;;;;;;5080646;28;20104;-81
2023/12/05 04:16:51;;;;;;;1.33;1.08;;;;;;;;;;5083219;28;20051;-81
2023/12/05 04:19:16;;;;;;;1.08;0.95;;;;;;;;;;5079756;28;20025;-80
2023/12/05 04:21:41;;;;;;;1.70;1.60;;;;;;;;;;5085110;28;20021;-79
2023/12/05 04:24:07;;;;;;;0.82;0.82;;;;;;;;;;5078755;28;20064;-80
2023/12/05 04:26:32;;;;;;;5.05;1.02;;;;;;;;;;5078295;28;20016;-81
2023/12/05 04:28:58;;;;;;;0.80;0.80;;;;;;;;;;5081275;28;20470;-81
2023/12/05 04:31:29;;;;;;;0.95;0.93;;;;;;;;;;5092308;28;20087;-82
2023/12/05 04:33:55;;;;;;;2.58;1.20;;;;;;;;;;5079793;28;20096;-80
2023/12/05 04:36:23;;;;;;;1.10;1.10;;;;;;;;;;5094844;28;20067;-80
2023/12/05 04:38:48;;;;;;;1.30;1.17;;;;;;;;;;5079404;28;20024;-82
2023/12/05 04:41:13;;;;;;;1.13;1.00;;;;;;;;;;5077316;28;20027;-81
2023/12/05 04:43:38;;;;;;;2.63;1.50;;;;;;;;;;5087394;28;20025;-81
2023/12/05 04:46:04;;;;;;;1.60;1.50;;;;;;;;;;5080813;28;20016;-82
2023/12/05 04:48:29;;;;;;;1.38;1.27;;;;;;;;;;5095968;28;20474;-81
2023/12/05 04:50:54;;;;;;;8.65;1.30;;;;;;;;;;5086723;28;20406;-83
2023/12/05 04:53:20;;;;;;;0.50;0.50;;;;;;;;;;5079379;28;20021;-81
2023/12/05 04:55:45;;;;;;;1.95;0.90;;;;;;;;;;5086129;28;20051;-81
2023/12/05 04:58:11;;;;;;;0.73;0.73;;;;;;;;;;5081621;28;20055;-81
2023/12/05 05:00:36;;;;;;;2.42;1.15;;;;;;;;;;5095164;28;20115;-80
2023/12/05 05:03:02;;;;;;;0.82;0.82;;;;;;;;;;5084821;28;20055;-81
2023/12/05 05:05:27;;;;;;;7.78;0.75;;;;;;;;;;5083127;28;20107;-82
2023/12/05 05:07:52;;;;;;;1.52;0.65;;;;;;;;;;5088064;28;20055;-81
2023/12/05 05:10:18;;;;;;;1.23;1.00;;;;;;;;;;5089203;28;20500;-83
2023/12/05 05:12:44;;;;;;;0.60;0.57;;;;;;;;;;5076105;28;20034;-81
2023/12/05 05:15:09;;;;;;;0.85;0.85;;;;;;;;;;5086345;28;20431;-78
2023/12/05 05:17:34;;;;;;;0.68;0.68;;;;;;;;;;5072850;28;20025;-83
2023/12/05 05:20:00;;;;;;;3.25;0.80;;;;;;;;;;5075773;28;20100;-82
2023/12/05 05:22:26;;;;;;;1.08;0.82;;;;;;;;;;5082156;28;20036;-81
2023/12/05 05:24:51;;;;;;;0.73;0.73;;;;;;;;;;5085035;28;20028;-80
2023/12/05 05:27:17;;;;;;;1.85;1.15;;;;;;;;;;5080058;28;20047;-83
2023/12/05 05:29:42;;;;;;;1.35;1.25;;;;;;;;;;5085539;28;20091;-82
2023/12/05 05:32:07;;;;;;;1.50;0.73;;;;;;;;;;5085161;28;20143;-82
2023/12/05 05:34:33;;;;;;;0.77;0.77;;;;;;;;;;5087445;28;20127;-82
2023/12/05 05:36:58;;;;;;;0.60;0.60;;;;;;;;;;5076928;28;20020;-80
2023/12/05 05:39:23;;;;;;;9.75;1.92;;;;;;;;;;5081484;28;20039;-81
2023/12/05 05:41:49;;;;;;;0.82;0.82;;;;;;;;;;5075798;28;20074;-79
2023/12/05 05:44:14;;;;;;;0.70;0.70;;;;;;;;;;5076430;28;20100;-79
2023/12/05 05:46:39;;;;;;;1.85;1.02;;;;;;;;;;5078311;28;20095;-80
2023/12/05 05:49:04;;;;;;;0.73;0.68;;;;;;;;;;5077061;28;20021;-80
2023/12/05 05:51:30;;;;;;;0.75;0.63;;;;;;;;;;5077408;28;20067;-80
2023/12/05 05:53:55;;;;;;;0.60;0.60;;;;;;;;;;5078166;28;20048;-79
2023/12/05 05:56:22;;;;;;;0.50;0.47;;;;;;;;;;5076405;28;20024;-80
2023/12/05 05:58:47;;;;;;;0.90;0.80;;;;;;;;;;5076490;28;20106;-81
2023/12/05 06:01:12;;;;;;;0.28;0.28;;;;;;;;;;5082116;28;20571;-79
2023/12/05 06:03:38;;;;;;;1.33;0.98;;;;;;;;;;5084420;28;20062;-80
2023/12/05 06:06:03;;;;;;;2.92;1.02;;;;;;;;;;5093513;28;20028;-81
2023/12/05 06:08:29;;;;;;;1.17;1.08;;;;;;;;;;5081818;28;20107;-78
2023/12/05 06:10:54;;;;;;;2.17;0.90;;;;;;;;;;5085143;28;20020;-81
2023/12/05 06:13:19;;;;;;;1.33;0.70;;;;;;;;;;5081106;28;20498;-79
2023/12/05 06:15:45;;;;;;;0.70;0.70;;;;;;;;;;5083877;28;20032;-80
2023/12/05 06:18:15;;;;;;;1.05;1.00;;;;;;;;;;5080300;28;20100;-80
2023/12/05 06:20:41;;;;;;;0.65;0.65;;;;;;;;;;5081347;28;20016;-80
2023/12/05 06:23:06;;;;;;;0.55;0.55;;;;;;;;;;5083362;28;20521;-81
2023/12/05 06:25:31;;;;;;;6.00;0.95;;;;;;;;;;5084854;28;20382;-80
2023/12/05 06:27:56;;;;;;;0.52;0.52;;;;;;;;;;5084050;28;20376;-80
2023/12/05 06:30:22;;;;;;;0.82;0.65;;;;;;;;;;5088615;28;20025;-80
2023/12/05 06:32:47;;;;;;;0.75;0.75;;;;;;;;;;5079518;28;20029;-79
2023/12/05 06:35:12;;;;;;;0.60;0.60;;;;;;;;;;5087814;28;20020;-82
2023/12/05 06:37:38;;;;;;;1.20;1.02;;;;;;;;;;5081145;28;20032;-82
2023/12/05 06:40:04;;;;;;;0.43;0.43;;;;;;;;;;5080482;28;20027;-81
2023/12/05 06:42:29;;;;;;;0.65;0.32;;;;;;;;;;5108969;28;20015;-81
2023/12/05 06:44:57;;;;;;;0.75;0.75;;;;;;;;;;5099308;28;20024;-80
2023/12/05 06:47:22;;;;;;;1.83;0.77;;;;;;;;;;5086604;28;20011;-80
2023/12/05 06:49:48;;;;;;;0.60;0.60;;;;;;;;;;5086143;28;20092;-80
2023/12/05 06:52:13;;;;;;;0.77;0.57;;;;;;;;;;5089167;28;20488;-80
2023/12/05 06:54:39;;;;;;;0.77;0.77;;;;;;;;;;5080685;28;20068;-81
2023/12/05 06:57:04;;;;;;;1.70;0.82;;;;;;;;;;5078909;28;20032;-80
2023/12/05 06:59:29;;;;;;;0.73;0.73;;;;;;;;;;5077593;28;20025;-80
2023/12/05 07:01:55;;;;;;;0.82;0.80;;;;;;;;;;5083298;28;20036;-81
2023/12/05 07:04:21;;;;;;;2.08;1.13;;;;;;;;;;5095247;28;20017;-81
2023/12/05 07:06:46;;;;;;;1.05;0.55;;;;;;;;;;5079103;28;20034;-81
2023/12/05 07:09:12;;;;;;;0.88;0.85;;;;;;;;;;5076123;28;20028;-80
2023/12/05 07:11:37;;;;;;;0.68;0.68;;;;;;;;;;5076806;28;20050;-80
2023/12/05 07:14:08;;;;;;;0.82;0.60;;;;;;;;;;5078915;28;20390;-83
2023/12/05 07:16:35;;;;;;;0.85;0.85;;;;;;;;;;5078867;28;20038;-78
2023/12/05 07:19:05;;;;;;;2.28;1.98;;;;;;;;;;5083728;28;20036;-79
2023/12/05 07:21:32;;;;;;;0.82;0.68;;;;;;;;;;5082971;28;20052;-78
2023/12/05 07:23:57;;;;;;;3.30;0.80;;;;;;;;;;5088951;28;20284;-81
2023/12/05 07:26:22;;;;;;;2.85;1.58;;;;;;;;;;5085210;28;20556;-81
2023/12/05 07:28:51;;;;;;;2.35;1.35;;;;;;;;;;5079995;28;20084;-80
2023/12/05 07:31:17;;;;;;;0.77;0.77;;;;;;;;;;5080418;28;20027;-81
2023/12/05 07:33:42;;;;;;;0.40;0.40;;;;;;;;;;5080363;28;20048;-81
2023/12/05 07:36:08;;;;;;;0.93;0.93;;;;;;;;;;5077593;28;20032;-82
2023/12/05 07:38:34;;;;;;;0.73;0.47;;;;;;;;;;5089501;28;20028;-86
2023/12/05 07:40:59;;;;;;;1.33;0.82;;;;;;;;;;5077581;28;20027;-81
2023/12/05 07:43:24;;;;;;;0.80;0.80;;;;;;;;;;5079606;28;20024;-81
2023/12/05 07:45:50;;;;;;;3.88;0.57;;;;;;;;;;5079132;28;20009;-83
2023/12/05 07:48:15;;;;;;;1.23;0.82;;;;;;;;;;5083414;28;20509;-81
2023/12/05 07:50:41;;;;;;;1.85;0.80;;;;;;;;;;5078782;28;20039;-81
2023/12/05 07:53:06;;;;;;;0.68;0.68;;;;;;;;;;5084968;28;20100;-83
2023/12/05 07:55:31;;;;;;;0.73;0.60;;;;;;;;;;5086245;28;20595;-81
2023/12/05 07:57:57;;;;;;;1.33;0.55;;;;;;;;;;5075708;28;20024;-80
2023/12/05 08:00:22;;;;;;;0.68;0.68;;;;;;;;;;5075112;28;20028;-81
2023/12/05 08:02:47;;;;;;;3.17;1.23;;;;;;;;;;5077404;28;20028;-81
2023/12/05 08:05:13;;;;;;;1.50;1.08;;;;;;;;;;5074556;28;20663;-82
2023/12/05 08:07:39;;;;;;;0.82;0.60;;;;;;;;;;5070917;28;20055;-82
2023/12/05 08:10:08;;;;;;;5.55;1.50;;;;;;;;;;5078049;28;20029;-80
2023/12/05 08:12:35;;;;;;;1.27;0.90;;;;;;;;;;5091620;28;20031;-81
2023/12/05 08:15:01;;;;;;;0.47;0.47;;;;;;;;;;5070087;28;20039;-82
2023/12/05 08:17:27;;;;;;;0.60;0.60;;;;;;;;;;5055864;28;20032;-82
2023/12/05 08:19:53;;;;;;;2.63;0.70;;;;;;;;;;5055414;28;20386;-80
2023/12/05 08:22:18;;;;;;;0.40;0.40;;;;;;;;;;5074198;28;20486;-81
2023/12/05 08:24:43;;;;;;;0.80;0.80;;;;;;;;;;5083157;28;20052;-80
2023/12/05 08:27:09;;;;;;;0.98;0.82;;;;;;;;;;5084915;28;20043;-82
2023/12/05 08:29:34;;;;;;;0.75;0.73;;;;;;;;;;5091030;28;20024;-81
2023/12/05 08:31:59;;;;;;;0.90;0.90;;;;;;;;;;5084052;28;20029;-81
2023/12/05 08:34:25;;;;;;;0.40;0.40;;;;;;;;;;5075582;28;20115;-81
2023/12/05 08:36:50;;;;;;;0.75;0.73;;;;;;;;;;5079506;28;20174;-79
2023/12/05 08:39:15;;;;;;;0.70;0.70;;;;;;;;;;5090646;28;20085;-81
2023/12/05 08:41:41;;;;;;;1.10;0.63;;;;;;;;;;5078340;28;20019;-81
2023/12/05 08:44:06;;;;;;;1.35;0.90;;;;;;;;;;5090012;28;20474;-81
2023/12/05 08:46:32;;;;;;;0.65;0.50;;;;;;;;;;5077204;28;20036;-80
2023/12/05 08:48:57;;;;;;;0.80;0.77;;;;;;;;;;5082948;28;20039;-79
2023/12/05 08:51:22;;;;;;;0.50;0.50;;;;;;;;;;5092601;28;20024;-82
2023/12/05 08:53:48;;;;;;;2.85;0.70;;;;;;;;;;5083753;28;20505;-80
2023/12/05 08:56:13;;;;;;;0.90;0.65;;;;;;;;;;5079783;28;20025;-82
2023/12/05 08:58:39;;;;;;;0.63;0.63;;;;;;;;;;5078190;28;20024;-81
2023/12/05 09:01:04;;;;;;;2.25;0.47;;;;;;;;;;5075963;28;20448;-79
2023/12/05 09:03:30;;;;;;;2.80;0.75;;;;;;;;;;5080278;28;20032;-82
2023/12/05 09:05:55;;;;;;;0.80;0.63;;;;;;;;;;5081165;28;20064;-81
2023/12/05 09:08:21;;;;;;;0.90;0.60;;;;;;;;;;5077804;28;20040;-80
2023/12/05 09:10:47;;;;;;;0.45;0.45;;;;;;;;;;5074983;28;20028;-80
2023/12/05 09:13:13;;;;;;;0.40;0.40;;;;;;;;;;5086969;28;20090;-80
2023/12/05 09:15:38;;;;;;;1.75;0.68;;;;;;;;;;5073328;28;20032;-80
2023/12/05 09:18:03;;;;;;;2.72;0.77;;;;;;;;;;5083584;28;20028;-82
2023/12/05 09:20:29;;;;;;;2.97;0.82;;;;;;;;;;5078535;28;20031;-81
2023/12/05 09:22:54;;;;;;;0.38;0.38;;;;;;;;;;5093894;28;20028;-82
2023/12/05 09:25:20;;;;;;;0.50;0.50;;;;;;;;;;5083583;28;20107;-80
2023/12/05 09:27:45;;;;;;;1.08;0.68;;;;;;;;;;5084794;28;20021;-82
2023/12/05 09:30:12;;;;;;;1.08;0.90;;;;;;;;;;5086801;28;20090;-78
2023/12/05 09:32:37;;;;;;;0.57;0.47;;;;;;;;;;5093176;28;20020;-80
2023/12/05 09:35:03;;;;;;;0.50;0.50;;;;;;;;;;5089975;28;20032;-82
2023/12/05 09:37:28;;;;;;;1.50;0.88;;;;;;;;;;5081877;28;20072;-81
2023/12/05 09:39:53;;;;;;;0.57;0.57;;;;;;;;;;5084549;28;20043;-82
2023/12/05 09:42:19;;;;;;;0.50;0.50;;;;;;;;;;5078967;28;20379;-80
2023/12/05 09:44:47;;;;;;;3.10;0.70;;;;;;;;;;5079596;28;20155;-81
2023/12/05 09:47:19;;;;;;;1.20;0.73;;;;;;;;;;5082671;28;20038;-81
2023/12/05 09:49:45;;;;;;;;;;;;;;;;;;5084391;28;20048;-79
2023/12/05 09:52:11;;;;;;;0.98;0.43;;;;;;;;;;5077580;28;19920;-80
2023/12/05 09:54:37;;;;;;;0.50;0.50;;;;;;;;;;5084008;28;20025;-81
2023/12/05 09:57:04;;;;;;;0.45;0.45;;;;;;;;;;5089392;28;20063;-81
2023/12/05 09:59:29;;;;;;;0.38;0.30;;;;;;;;;;5075440;28;20521;-82
2023/12/05 10:02:00;;;;;;;0.63;0.63;;;;;;;;;;5073040;28;20040;-79
2023/12/05 10:04:27;;;;;;;0.52;0.47;;;;;;;;;;5081363;28;20517;-80
2023/12/05 10:06:52;;;;;;;0.32;0.32;;;;;;;;;;5085731;28;20364;-80
2023/12/05 10:09:21;;;;;;;3.30;0.52;;;;;;;;;;5092392;28;20100;-80
2023/12/05 10:11:47;;;;;;;0.55;0.25;;;;;;;;;;5080239;28;20112;-80
2023/12/05 10:14:13;;;;;;;1.23;1.00;;;;;;;;;;5084944;28;20024;-79
2023/12/05 10:16:39;;;;;;;0.60;0.60;;;;;;;;;;5076541;28;20024;-79
2023/12/05 10:19:05;;;;;;;0.40;0.40;;;;;;;;;;5077992;28;20153;-80
2023/12/05 10:21:31;;;;;;;0.60;0.60;;;;;;;;;;5081029;28;20032;-79
2023/12/05 10:23:56;;;;;;;0.20;0.20;;;;;;;;;;5092624;28;20031;-81
2023/12/05 10:26:22;;;;;;;0.65;0.50;;;;;;;;;;5082831;28;20026;-79
2023/12/05 10:28:51;;;;;;;0.30;0.30;;;;;;;;;;5089073;28;20481;-81
2023/12/05 10:31:18;;;;;;;0.45;0.45;;;;;;;;;;5084188;28;20312;-82
2023/12/05 10:33:43;;;;;;;0.30;0.30;;;;;;;;;;5079917;28;20052;-81
2023/12/05 10:36:13;;;;;;;2.10;0.77;;;;;;;;;;5080677;28;20042;-81
2023/12/05 10:38:42;;;;;;;0.98;0.55;;;;;;;;;;5091262;28;20024;-82
2023/12/05 10:41:07;;;;;;;1.92;0.93;;;;;;;;;;5083741;28;20034;-81
2023/12/05 10:43:32;;;;;;;1.30;0.85;;;;;;;;;;5089930;28;20027;-80
2023/12/05 10:46:03;;;;;;;0.80;0.50;;;;;;;;;;5071437;28;20085;-81
2023/12/05 10:48:28;;;;;;;0.50;0.50;;;;;;;;;;5074059;28;20026;-82
2023/12/05 10:50:56;;;;;;;0.47;0.47;;;;;;;;;;5077601;28;20031;-81
2023/12/05 10:53:21;;;;;;;0.60;0.50;;;;;;;;;;5078156;28;20085;-81
2023/12/05 10:55:47;;;;;;;2.00;0.63;;;;;;;;;;5089659;28;20096;-83
2023/12/05 10:58:14;;;;;;;0.45;0.45;;;;;;;;;;5078211;28;20575;-82
2023/12/05 11:00:39;;;;;;;0.55;0.55;;;;;;;;;;5082279;28;20358;-82
2023/12/05 11:03:05;;;;;;;1.65;0.80;;;;;;;;;;5079571;28;20032;-80
2023/12/05 11:05:32;;;;;;;0.50;0.50;;;;;;;;;;5089001;28;20028;-80
2023/12/05 11:07:58;;;;;;;0.80;0.60;;;;;;;;;;5080017;28;20365;-84
2023/12/05 11:10:25;;;;;;;2.05;1.00;;;;;;;;;;5083268;28;20033;-83
2023/12/05 11:12:51;;;;;;;0.85;0.70;;;;;;;;;;5069700;28;20037;-81
2023/12/05 11:15:40;;;;;;;1.80;1.10;;;;;;;;;;5081077;28;20032;-82
2023/12/05 11:18:18;;;;;;;2.03;0.43;;;;;;;;;;5076238;28;20049;-83
2023/12/05 11:21:05;;;;;;;0.63;0.60;;;;;;;;;;5075619;28;20555;-82
2023/12/05 11:23:49;;;;;;;0.63;0.63;;;;;;;;;;5075460;28;20032;-81
2023/12/05 11:26:34;;;;;;;3.22;0.70;;;;;;;;;;5079653;28;20024;-80
2023/12/05 11:29:05;;;;;;;0.35;0.30;;;;;;;;;;5076633;28;20028;-80
2023/12/05 11:32:03;;;;;;;0.37;0.37;;;;;;;;;;5066233;28;20031;-82
2023/12/05 11:34:56;;;;;;;3.50;1.02;;;;;;;;;;5077975;28;20810;-81
2023/12/05 11:37:30;;;;;;;0.68;0.45;;;;;;;;;;5078776;28;20032;-80
2023/12/05 11:39:57;;;;;;;2.58;0.93;;;;;;;;;;5075304;28;20147;-81
2023/12/05 11:42:22;;;;;;;0.40;0.40;;;;;;;;;;5075544;28;20490;-80
2023/12/05 11:44:47;;;;;;;0.40;0.40;;;;;;;;;;5069045;28;20024;-81
2023/12/05 11:47:21;;;;;;;0.52;0.47;;;;;;;;;;5075991;28;20032;-81
2023/12/05 11:50:05;;;;;;;1.38;0.88;;;;;;;;;;5080497;28;20035;-80
2023/12/05 11:52:39;;;;;;;0.40;0.40;;;;;;;;;;5071632;28;20592;-81
2023/12/05 11:55:05;;;;;;;1.65;0.90;;;;;;;;;;5086470;28;20044;-78
2023/12/05 11:57:32;;;;;;;0.70;0.70;;;;;;;;;;5107475;28;20028;-79
2023/12/05 11:59:57;;;;;;;0.75;0.75;;;;;;;;;;5081013;28;20086;-80
2023/12/05 12:02:32;;;;;;;1.45;1.00;;;;;;;;;;5074820;28;20033;-86
2023/12/05 12:05:05;;;;;;;0.60;0.60;;;;;;;;;;5074493;28;20028;-80
2023/12/05 12:07:30;;;;;;;2.47;1.60;;;;;;;;;;5080885;28;20024;-82
2023/12/05 12:09:56;;;;;;;1.35;0.63;;;;;;;;;;5086248;28;20039;-81
2023/12/05 12:12:21;;;;;;;0.93;0.70;;;;;;;;;;5076944;28;20588;-79
2023/12/05 12:14:47;;;;;;;0.68;0.60;;;;;;;;;;5072853;28;20029;-84
2023/12/05 12:17:13;;;;;;;1.38;0.60;;;;;;;;;;5076287;28;20037;-80
2023/12/05 12:19:39;;;;;;;2.45;0.52;;;;;;;;;;5080675;28;20047;-80
2023/12/05 12:22:08;;;;;;;0.57;0.40;;;;;;;;;;5076821;28;20414;-81
2023/12/05 12:24:36;;;;;;;1.85;0.45;;;;;;;;;;5067304;28;20021;-80
2023/12/05 12:27:01;;;;;;;0.98;0.80;;;;;;;;;;5089666;28;20097;-80
2023/12/05 12:29:27;;;;;;;0.40;0.40;;;;;;;;;;5070268;28;20433;-81
2023/12/05 12:32:12;;;;;;;0.60;0.60;;;;;;;;;;5066540;28;20040;-80
2023/12/05 12:34:42;;;;;;;0.88;0.88;;;;;;;;;;5077797;28;20385;-81
2023/12/05 12:37:11;;;;;;;0.40;0.40;;;;;;;;;;5090707;28;20077;-82
2023/12/05 12:39:37;;;;;;;1.65;1.00;;;;;;;;;;5085778;28;20089;-81
2023/12/05 12:42:04;;;;;;;0.50;0.50;;;;;;;;;;5076716;28;20047;-81
2023/12/05 12:44:30;;;;;;;0.77;0.77;;;;;;;;;;5080658;28;20504;-81
2023/12/05 12:46:56;;;;;;;0.60;0.60;;;;;;;;;;5071856;28;20100;-81
2023/12/05 12:49:22;;;;;;;0.90;0.73;;;;;;;;;;5072565;28;20056;-82
2023/12/05 12:51:48;;;;;;;2.47;1.02;;;;;;;;;;5078874;28;20114;-80
2023/12/05 12:54:13;;;;;;;2.72;0.95;;;;;;;;;;5076049;28;20099;-80
2023/12/05 12:56:39;;;;;;;3.53;0.77;;;;;;;;;;5090007;28;20046;-80
2023/12/05 12:59:06;;;;;;;2.75;0.57;;;;;;;;;;5075732;28;20035;-80
2023/12/05 13:01:38;;;;;;;2.90;0.85;;;;;;;;;;5088854;28;20028;-80
2023/12/05 13:04:08;;;;;;;0.57;0.50;;;;;;;;;;5088754;28;20016;-80
2023/12/05 13:06:38;;;;;;;5.00;0.70;;;;;;;;;;5070105;28;20025;-80
2023/12/05 13:09:11;;;;;;;1.48;0.43;;;;;;;;;;5083751;28;20032;-79
2023/12/05 13:11:37;;;;;;;0.50;0.50;;;;;;;;;;5090754;28;20020;-80
2023/12/05 13:14:09;;;;;;;0.68;0.68;;;;;;;;;;5074148;28;20119;-80
2023/12/05 13:16:42;;;;;;;0.40;0.30;;;;;;;;;;5087376;28;20047;-79
2023/12/05 13:19:30;;;;;;;3.78;0.65;;;;;;;;;;5072986;28;20029;-79
2023/12/05 13:21:56;;;;;;;0.38;0.38;;;;;;;;;;5075709;28;20032;-79
2023/12/05 13:24:22;;;;;;;0.28;0.28;;;;;;;;;;5069816;28;20021;-78
2023/12/05 13:26:48;;;;;;;1.15;0.90;;;;;;;;;;5074493;28;20378;-79
2023/12/05 13:29:13;;;;;;;0.68;0.68;;;;;;;;;;5071797;28;20043;-80
2023/12/05 13:31:39;;;;;;;0.63;0.63;;;;;;;;;;5073284;28;20048;-80
2023/12/05 13:34:05;;;;;;;2.38;0.40;;;;;;;;;;5073956;28;20414;-79
2023/12/05 13:36:32;;;;;;;0.80;0.55;;;;;;;;;;5086680;28;20032;-81
2023/12/05 13:38:57;;;;;;;1.92;0.68;;;;;;;;;;5093198;28;20032;-80
2023/12/05 13:41:22;;;;;;;1.05;0.60;;;;;;;;;;5076819;28;20028;-81
2023/12/05 13:43:48;;;;;;;0.57;0.57;;;;;;;;;;5074738;28;20033;-79
2023/12/05 13:46:14;;;;;;;0.65;0.57;;;;;;;;;;5066406;28;20040;-79
2023/12/05 13:48:41;;;;;;;2.92;0.60;;;;;;;;;;5078563;28;20029;-79
2023/12/05 13:51:07;;;;;;;2.78;0.63;;;;;;;;;;5087545;28;20039;-80
2023/12/05 13:53:33;;;;;;;0.55;0.45;;;;;;;;;;5077527;28;20067;-79
2023/12/05 13:55:58;;;;;;;0.50;0.50;;;;;;;;;;5081883;28;20029;-79
2023/12/05 13:58:23;;;;;;;0.65;0.65;;;;;;;;;;5078774;28;20033;-79
2023/12/05 14:00:49;;;;;;;1.20;0.55;;;;;;;;;;5075157;28;20028;-77
2023/12/05 14:03:14;;;;;;;1.75;0.55;;;;;;;;;;5074726;28;20028;-79
2023/12/05 14:05:41;;;;;;;0.43;0.43;;;;;;;;;;5082595;28;20466;-79
2023/12/05 14:08:06;;;;;;;0.63;0.63;;;;;;;;;;5089681;28;20036;-79
2023/12/05 14:10:31;;;;;;;0.52;0.52;;;;;;;;;;5098073;28;20046;-79
2023/12/05 14:12:57;;;;;;;0.55;0.55;;;;;;;;;;5098539;28;20088;-79
2023/12/05 14:15:22;;;;;;;0.98;0.63;;;;;;;;;;5073813;28;20047;-79
2023/12/05 14:17:47;;;;;;;0.47;0.38;;;;;;;;;;5072735;28;20025;-80
2023/12/05 14:20:15;;;;;;;0.40;0.40;;;;;;;;;;5073842;28;20021;-80
2023/12/05 14:22:41;;;;;;;1.45;0.70;;;;;;;;;;5081304;28;20030;-79
2023/12/05 14:25:07;;;;;;;2.53;0.65;;;;;;;;;;5075695;28;20115;-80
2023/12/05 14:27:33;;;;;;;2.55;0.30;;;;;;;;;;5076100;28;20036;-79
2023/12/05 14:29:58;;;;;;;0.45;0.45;;;;;;;;;;5076207;28;20024;-79
2023/12/05 14:32:24;;;;;;;0.82;0.65;;;;;;;;;;5076517;28;20058;-78
2023/12/05 14:34:49;;;;;;;2.38;0.80;;;;;;;;;;5082935;28;20032;-79
2023/12/05 14:37:18;;;;;;;0.55;0.50;;;;;;;;;;5082856;28;20051;-79
2023/12/05 14:39:44;;;;;;;0.10;0.10;;;;;;;;;;5081173;28;20048;-79
2023/12/05 14:42:10;;;;;;;0.55;0.55;;;;;;;;;;5084640;28;20044;-79
2023/12/05 14:44:36;;;;;;;0.60;0.50;;;;;;;;;;5089951;28;20024;-79